Time;durP1;ratioP1;P1;durP2;ratioP2;P2;SDS_P1;SDS_P2;PMS_P1;PMS_P2;Temp;Humidity;BMP_temperature;BMP_pressure;BME280_temperature;BME280_humidity;BME280_pressure;Samples;Min_cycle;Max_cycle;Signal;HPM_P1;HPM_P2
2022/05/18 04:19:22;;;;;;;10.57;6.18;;;;;;;11.91;100.00;101034.34;5562015;32;211095;-86
2022/05/18 04:22:25;;;;;;;8.73;5.43;;;;;;;11.85;100.00;101040.81;5549462;32;33942;-86
2022/05/18 04:25:29;;;;;;;6.65;5.70;;;;;;;11.89;100.00;101043.31;5548383;32;33565;-84
2022/05/18 04:28:33;;;;;;;5.90;5.07;;;;;;;11.98;100.00;101048.25;5554156;32;33041;-84
2022/05/18 04:31:35;;;;;;;10.07;5.22;;;;;;;12.08;100.00;101054.03;5554638;32;34192;-85
2022/05/18 04:34:39;;;;;;;7.80;5.55;;;;;;;12.22;100.00;101058.72;5550499;32;34045;-88
2022/05/18 04:37:41;;;;;;;5.53;4.93;;;;;;;12.39;100.00;101064.09;5548840;32;33861;-89
2022/05/18 04:40:45;;;;;;;12.98;5.45;;;;;;;12.51;100.00;101065.34;5551466;32;33713;-89
2022/05/18 04:43:47;;;;;;;8.15;4.78;;;;;;;12.66;100.00;101073.53;5555092;32;33462;-88
2022/05/18 04:46:55;;;;;;;5.22;4.70;;;;;;;12.83;98.85;101075.41;5557481;32;34058;-86
2022/05/18 04:49:58;;;;;;;5.75;4.75;;;;;;;12.98;96.91;101086.25;5554960;32;34109;-85
2022/05/18 04:53:01;;;;;;;10.50;4.80;;;;;;;13.23;96.35;101093.88;5555964;32;34201;-85
2022/05/18 04:56:04;;;;;;;7.65;4.18;;;;;;;13.42;90.12;101096.50;5550244;32;32242;-85
2022/05/18 04:59:07;;;;;;;5.35;4.28;;;;;;;13.68;90.23;101101.50;5545794;32;33474;-85
2022/05/18 05:02:10;;;;;;;6.35;3.95;;;;;;;13.85;86.33;101109.50;5546875;32;33989;-85
2022/05/18 05:05:14;;;;;;;7.12;4.47;;;;;;;14.10;84.83;101118.00;5546345;32;34219;-85
2022/05/18 05:08:16;;;;;;;6.37;3.80;;;;;;;14.21;83.84;101122.75;5544299;32;34560;-85
2022/05/18 05:11:19;;;;;;;6.15;3.60;;;;;;;14.11;78.36;101131.28;5545738;32;34476;-85
2022/05/18 05:14:23;;;;;;;4.53;3.70;;;;;;;14.31;81.07;101139.13;5545269;32;34334;-85
2022/05/18 05:17:26;;;;;;;4.57;3.30;;;;;;;14.13;77.45;101141.87;5545160;32;34039;-85
2022/05/18 05:20:29;;;;;;;5.22;3.03;;;;;;;14.21;75.68;101158.31;5544829;32;34001;-86
2022/05/18 05:23:33;;;;;;;3.08;2.78;;;;;;;14.10;70.35;101158.91;5546127;32;34330;-86
2022/05/18 05:26:38;;;;;;;3.05;2.72;;;;;;;14.28;68.48;101166.84;5547456;32;33865;-86
2022/05/18 05:29:42;;;;;;;6.15;2.50;;;;;;;14.42;67.51;101171.47;5536098;32;32666;-86
2022/05/18 05:32:45;;;;;;;3.95;2.58;;;;;;;15.27;64.59;101167.78;5525813;32;34109;-86
2022/05/18 05:35:48;;;;;;;4.20;2.33;;;;;;;16.59;59.02;101183.28;5517010;32;33596;-86
2022/05/18 05:38:51;;;;;;;5.93;2.40;;;;;;;17.09;54.45;101181.03;5515111;32;34123;-86
2022/05/18 05:41:54;;;;;;;4.45;2.50;;;;;;;19.22;50.42;101184.50;5515340;32;32411;-87
2022/05/18 05:44:57;;;;;;;2.75;2.10;;;;;;;20.09;45.17;101191.50;5526603;32;33517;-87
2022/05/18 05:48:01;;;;;;;3.22;2.00;;;;;;;20.53;44.35;101196.22;5526530;32;34040;-87
2022/05/18 05:51:04;;;;;;;4.43;2.20;;;;;;;21.11;41.85;101206.00;5516280;32;34383;-86
2022/05/18 05:54:08;;;;;;;3.58;2.20;;;;;;;21.28;41.50;101205.50;5531408;32;35138;-86
2022/05/18 05:57:11;;;;;;;4.75;1.95;;;;;;;20.33;42.54;101217.50;5530942;32;33951;-86
2022/05/18 06:00:15;;;;;;;4.90;2.28;;;;;;;20.64;42.03;101222.31;5530402;32;32688;-86
2022/05/18 06:03:19;;;;;;;6.37;2.22;;;;;;;19.79;43.02;101228.72;5530583;32;33977;-87
2022/05/18 06:06:22;;;;;;;4.25;1.98;;;;;;;19.77;43.86;101236.03;5520800;32;32597;-86
2022/05/18 06:09:25;;;;;;;5.00;2.42;;;;;;;19.14;45.14;101236.16;5513565;32;34276;-86
2022/05/18 06:12:28;;;;;;;4.45;2.40;;;;;;;19.79;43.02;101242.16;5529924;32;33916;-86
2022/05/18 06:15:31;;;;;;;4.47;2.20;;;;;;;21.68;39.51;101232.88;5529971;32;34012;-86
2022/05/18 06:18:34;;;;;;;7.55;2.22;;;;;;;22.25;36.22;101243.44;5535276;32;33866;-86
2022/05/18 06:21:37;;;;;;;4.50;1.90;;;;;;;23.19;33.87;101247.03;5536917;32;32113;-86
2022/05/18 06:24:40;;;;;;;3.05;1.77;;;;;;;22.55;33.72;101254.44;5536361;32;34024;-86
2022/05/18 06:27:44;;;;;;;4.30;1.98;;;;;;;22.27;35.59;101260.34;5530000;32;34109;-86
2022/05/18 06:30:48;;;;;;;2.58;2.00;;;;;;;22.89;33.20;101263.16;5519181;32;33969;-86
2022/05/18 06:33:51;;;;;;;2.78;1.80;;;;;;;20.99;35.81;101278.00;5522523;32;32614;-86
2022/05/18 06:36:54;;;;;;;3.80;2.08;;;;;;;18.94;42.24;101278.75;5534325;32;34809;-85
2022/05/18 06:39:57;;;;;;;2.10;1.92;;;;;;;18.82;42.38;101285.84;5529418;32;33003;-86
2022/05/18 06:43:00;;;;;;;3.53;2.37;;;;;;;17.91;45.37;101288.34;5519323;32;34102;-86
2022/05/18 06:46:03;;;;;;;3.45;2.50;;;;;;;17.69;48.31;101291.59;5525343;32;32457;-86
2022/05/18 06:49:10;;;;;;;4.85;2.47;;;;;;;17.55;48.43;101299.69;5536488;32;34708;-86
2022/05/18 06:52:16;;;;;;;5.35;2.30;;;;;;;17.60;49.17;101289.53;5518680;32;32468;-90
2022/05/18 06:55:18;;;;;;;7.22;2.62;;;;;;;17.67;47.40;101298.03;5515271;32;33349;-90
2022/05/18 06:58:22;;;;;;;3.42;2.50;;;;;;;17.85;46.85;101304.03;5529773;32;33809;-86
2022/05/18 07:01:27;;;;;;;4.18;2.30;;;;;;;17.51;46.81;101312.44;5533163;32;33710;-87
2022/05/18 07:04:33;;;;;;;5.20;2.30;;;;;;;17.61;49.02;101307.34;5536704;32;33883;-86
2022/05/18 07:07:37;;;;;;;4.12;2.35;;;;;;;19.26;44.53;101315.97;5519753;32;34244;-87
2022/05/18 07:10:40;;;;;;;5.10;2.30;;;;;;;19.57;42.65;101328.16;5530153;32;33923;-87
2022/05/18 07:13:43;;;;;;;7.43;2.30;;;;;;;19.70;41.93;101338.91;5510667;32;33842;-86
2022/05/18 07:16:47;;;;;;;6.05;2.33;;;;;;;19.97;42.73;101340.53;5510995;32;34126;-85
2022/05/18 07:19:50;;;;;;;4.50;2.47;;;;;;;20.04;43.36;101339.09;5510683;32;32687;-86
2022/05/18 07:22:53;;;;;;;3.75;2.50;;;;;;;19.45;42.83;101346.91;5521922;32;34100;-85
2022/05/18 07:25:57;;;;;;;3.10;2.40;;;;;;;18.51;45.56;101351.63;5517390;32;34573;-84
2022/05/18 07:29:02;;;;;;;3.40;2.60;;;;;;;18.21;45.63;101361.66;5514841;32;33294;-85
2022/05/18 07:32:23;;;;;;;10.00;3.00;;;;;;;17.54;49.38;101357.84;5521976;32;32787;-86
2022/05/18 07:35:28;;;;;;;4.65;2.78;;;;;;;17.31;47.72;101357.50;5525097;32;33940;-86
2022/05/18 07:38:32;;;;;;;5.12;2.67;;;;;;;17.96;47.72;101365.03;5519279;32;32942;-86
2022/05/18 07:41:42;;;;;;;4.82;2.62;;;;;;;18.44;45.65;101362.78;5521456;32;34187;-86
2022/05/18 07:44:45;;;;;;;12.10;3.35;;;;;;;18.63;43.71;101368.72;5521879;32;33913;-86
2022/05/18 07:47:48;;;;;;;3.12;2.37;;;;;;;19.28;42.81;101368.78;5509999;32;32956;-84
2022/05/18 07:50:51;;;;;;;4.87;2.25;;;;;;;19.73;43.45;101377.22;5517493;32;33746;-86
2022/05/18 07:53:54;;;;;;;4.22;2.40;;;;;;;19.74;42.44;101380.75;5517518;32;34204;-85
2022/05/18 07:56:57;;;;;;;10.88;2.12;;;;;;;19.69;39.58;101383.78;5510781;32;31881;-84
2022/05/18 08:00:00;;;;;;;3.95;2.10;;;;;;;19.00;41.19;101385.00;5510411;32;33649;-84
2022/05/18 08:03:14;;;;;;;3.55;2.03;;;;;;;19.24;35.99;101390.53;5532640;32;34226;-84
2022/05/18 08:06:17;;;;;;;6.87;2.53;;;;;;;19.36;40.80;101390.63;5538145;32;32602;-84
2022/05/18 08:09:22;;;;;;;2.22;2.03;;;;;;;19.88;37.90;101396.78;5530578;32;34930;-84
2022/05/18 08:15:50;;;;;;;3.83;2.45;;;;;;;20.59;38.45;101406.84;5527081;32;33505;-85
2022/05/18 08:18:53;;;;;;;8.50;2.50;;;;;;;21.34;36.35;101414.62;5529210;32;34148;-89
2022/05/18 08:21:56;;;;;;;5.25;2.00;;;;;;;21.43;36.85;101415.72;5527666;32;32289;-88
2022/05/18 08:24:59;;;;;;;6.32;2.22;;;;;;;21.54;36.11;101423.81;5528695;32;33983;-90
2022/05/18 08:28:03;;;;;;;5.25;2.10;;;;;;;22.27;33.68;101427.06;5522229;32;34354;-87
2022/05/18 08:31:06;;;;;;;4.07;2.00;;;;;;;21.73;36.17;101426.91;5521850;32;32757;-86
2022/05/18 08:34:08;;;;;;;5.50;2.33;;;;;;;22.10;39.65;101426.59;5518421;32;32019;-86
2022/05/18 08:37:11;;;;;;;6.72;2.20;;;;;;;22.35;33.43;101424.56;5518717;32;33825;-86
2022/05/18 08:40:29;;;;;;;4.60;1.85;;;;;;;22.07;34.89;101434.94;5520313;32;34633;-87
2022/05/18 08:43:34;;;;;;;4.03;2.10;;;;;;;22.74;32.77;101446.53;5508860;32;34261;-87
2022/05/18 08:46:43;;;;;;;3.65;1.95;;;;;;;23.46;31.38;101436.91;5507762;32;33085;-86
2022/05/18 08:49:52;;;;;;;4.00;2.55;;;;;;;23.38;32.63;101445.72;5513499;32;34806;-87
2022/05/18 08:52:59;;;;;;;6.47;1.98;;;;;;;23.74;29.61;101437.19;5526928;32;33274;-87
2022/05/18 08:56:17;;;;;;;3.12;1.92;;;;;;;23.63;30.46;101438.16;5527527;32;33914;-87
2022/05/18 08:59:27;;;;;;;5.82;2.20;;;;;;;23.65;31.43;101442.44;5513459;32;33827;-87
2022/05/18 09:02:33;;;;;;;4.05;1.77;;;;;;;23.64;29.25;101442.56;5509777;32;34638;-87
2022/05/18 09:06:00;;;;;;;6.75;2.10;;;;;;;22.94;32.09;101441.31;5522109;32;33269;-87
2022/05/18 09:12:27;;;;;;;5.40;2.08;;;;;;;24.18;30.77;101445.03;5519891;32;33166;-87
2022/05/18 09:15:52;;;;;;;3.37;2.08;;;;;;;23.73;30.09;101438.19;5513063;32;34323;-87
2022/05/18 09:19:26;;;;;;;6.93;1.98;;;;;;;23.26;29.03;101444.91;5513331;32;34850;-88
2022/05/18 09:22:56;;;;;;;5.05;2.00;;;;;;;23.79;27.55;101446.59;5509388;32;35301;-86
2022/05/18 09:26:22;;;;;;;3.30;2.00;;;;;;;24.34;29.50;101447.19;5513231;32;34138;-88
2022/05/18 09:29:33;;;;;;;2.85;1.70;;;;;;;23.83;25.95;101445.34;5525842;32;33072;-87
2022/05/18 09:33:12;;;;;;;8.85;1.67;;;;;;;23.86;29.06;101448.75;5518268;32;34711;-87
2022/05/18 09:36:36;;;;;;;3.90;1.80;;;;;;;23.57;26.41;101453.06;5522979;32;33663;-83
2022/05/18 09:39:45;;;;;;;3.58;1.77;;;;;;;24.61;25.59;101451.91;5538439;32;33418;-91
2022/05/18 09:43:14;;;;;;;3.72;1.40;;;;;;;25.24;24.48;101457.00;5533663;32;33112;-85
2022/05/18 09:46:22;;;;;;;2.45;1.62;;;;;;;27.58;22.05;101451.91;5524833;32;33645;-86
2022/05/18 09:49:43;;;;;;;2.35;1.70;;;;;;;26.63;21.89;101444.41;5532960;32;33256;-85
2022/05/18 09:52:48;;;;;;;3.33;1.77;;;;;;;26.82;21.72;101442.50;5520611;32;32543;-85
2022/05/18 09:55:51;;;;;;;2.70;1.70;;;;;;;26.83;21.56;101445.09;5531065;32;32477;-84
2022/05/18 09:58:58;;;;;;;8.15;2.00;;;;;;;26.24;22.42;101446.41;5520633;32;34196;-85
2022/05/18 10:08:52;;;;;;;3.00;1.70;;;;;;;25.60;24.10;101449.06;5524597;32;32367;-86
2022/05/18 10:11:55;;;;;;;2.62;1.80;;;;;;;25.63;25.17;101447.88;5525764;32;34015;-85
2022/05/18 10:15:07;;;;;;;3.30;1.90;;;;;;;23.96;25.76;101460.47;5525888;32;34347;-85
2022/05/18 10:18:17;;;;;;;3.05;1.67;;;;;;;23.36;26.22;101461.22;5513039;32;35782;-85
2022/05/18 10:21:32;;;;;;;3.83;1.80;;;;;;;23.29;26.27;101455.47;5515596;32;32514;-85
2022/05/18 10:24:40;;;;;;;7.60;1.90;;;;;;;24.63;23.74;101449.03;5521990;32;32513;-90
2022/05/18 10:27:46;;;;;;;3.37;1.90;;;;;;;27.06;21.92;101441.03;5512925;32;33563;-86
2022/05/18 10:31:03;;;;;;;4.50;1.75;;;;;;;29.77;20.61;101456.28;5511617;32;34464;-86
2022/05/18 10:34:18;;;;;;;4.50;1.70;;;;;;;28.20;19.35;101447.16;5529515;32;33093;-84
2022/05/18 10:37:31;;;;;;;2.22;1.50;;;;;;;26.74;21.00;101441.44;5526615;32;32587;-85
2022/05/18 10:40:34;;;;;;;5.80;1.75;;;;;;;25.81;22.77;101439.78;5525569;32;35133;-86
2022/05/18 10:44:02;;;;;;;2.80;1.85;;;;;;;24.82;25.99;101448.22;5530339;32;33823;-90
2022/05/18 10:47:17;;;;;;;2.22;1.60;;;;;;;24.20;24.97;101448.44;5530923;32;33763;-89
2022/05/18 10:50:32;;;;;;;6.55;1.60;;;;;;;24.41;25.46;101451.03;5521895;32;32720;-88
2022/05/18 10:53:46;;;;;;;2.60;1.30;;;;;;;24.16;22.99;101439.75;5510603;32;34386;-88
2022/05/18 10:56:50;;;;;;;5.20;1.52;;;;;;;22.94;23.73;101437.72;5509842;32;34317;-87
2022/05/18 11:00:08;;;;;;;1.48;1.35;;;;;;;23.26;21.79;101429.53;5510602;32;34106;-89
2022/05/18 11:03:30;;;;;;;2.08;1.12;;;;;;;23.67;21.88;101423.31;5525288;32;33984;-90
2022/05/18 11:06:37;;;;;;;4.53;1.48;;;;;;;25.51;20.00;101431.75;5509838;32;33157;-89
2022/05/18 11:09:41;;;;;;;2.10;1.50;;;;;;;26.74;18.86;101416.06;5510648;32;32380;-91
2022/05/18 11:12:51;;;;;;;1.92;1.67;;;;;;;25.60;20.39;101421.03;5527177;32;33897;-89
2022/05/18 11:16:14;;;;;;;2.30;1.70;;;;;;;24.72;23.41;101412.94;5523508;32;33431;-90
2022/05/18 11:19:48;;;;;;;7.10;1.85;;;;;;;24.84;23.34;101416.34;5519329;32;34284;-87
2022/05/18 11:22:55;;;;;;;3.47;1.60;;;;;;;23.29;24.76;101413.00;5512801;32;33005;-88
2022/05/18 11:26:24;;;;;;;3.25;1.70;;;;;;;23.44;23.41;101418.12;5524198;32;32991;-88
2022/05/18 11:30:15;;;;;;;3.22;1.50;;;;;;;23.51;24.33;101407.56;5493369;32;34172;-88
2022/05/18 11:33:24;;;;;;;1.90;1.70;;;;;;;22.09;27.79;101416.78;5507099;32;32820;-88
2022/05/18 11:36:49;;;;;;;2.35;1.30;;;;;;;22.79;26.25;101404.75;5530454;32;32238;-89
2022/05/18 11:40:04;;;;;;;5.62;1.58;;;;;;;23.31;23.02;101403.91;5528711;32;33927;-88
2022/05/18 11:43:28;;;;;;;3.90;1.62;;;;;;;23.23;25.09;101405.44;5522442;32;32752;-87
2022/05/18 11:46:55;;;;;;;4.22;1.40;;;;;;;23.50;24.26;101408.56;5525500;32;33636;-88
2022/05/18 11:50:11;;;;;;;6.05;2.10;;;;;;;22.30;25.60;101403.34;5526840;32;34924;-88
2022/05/18 11:53:51;;;;;;;2.78;1.70;;;;;;;22.42;24.49;101403.31;5523727;32;33754;-87
2022/05/18 12:01:03;;;;;;;2.97;1.40;;;;;;;22.60;23.85;101384.69;4913859;30;20103;-88
2022/05/18 12:04:45;;;;;;;1.90;0.90;;;;;;;21.90;25.30;101394.00;5510936;32;34118;-86
2022/05/18 12:08:26;;;;;;;6.03;1.15;;;;;;;21.75;21.84;101400.63;5502819;32;34459;-85
2022/05/18 12:12:01;;;;;;;2.08;0.85;;;;;;;22.54;21.17;101396.03;5494547;32;33757;-86
2022/05/18 12:15:39;;;;;;;1.42;0.70;;;;;;;22.13;17.66;101395.78;5496537;32;32349;-91
2022/05/18 12:19:01;;;;;;;2.70;0.80;;;;;;;22.13;17.38;101388.50;5494180;32;33078;-86
2022/05/18 12:22:20;;;;;;;0.95;0.62;;;;;;;22.17;18.93;101402.66;5517754;26;34068;-86
2022/05/18 12:25:26;;;;;;;4.65;0.80;;;;;;;21.68;18.08;101398.41;5529028;32;32444;-87
2022/05/18 12:28:29;;;;;;;0.60;0.60;;;;;;;21.33;18.12;101402.13;5532045;32;32603;-86
2022/05/18 12:31:34;;;;;;;1.92;0.75;;;;;;;21.23;17.35;101401.12;5527613;32;35565;-87
2022/05/18 12:34:44;;;;;;;2.80;0.60;;;;;;;20.86;16.62;101396.75;5530944;32;34084;-87
2022/05/18 12:38:05;;;;;;;0.73;0.50;;;;;;;21.13;16.55;101401.81;5525418;32;33904;-87
2022/05/18 12:41:13;;;;;;;0.93;0.70;;;;;;;21.32;17.75;101408.47;5583764;26;34634;-89
2022/05/18 12:44:25;;;;;;;2.28;0.60;;;;;;;21.27;17.42;101413.41;5538721;32;34010;-88
2022/05/18 12:47:29;;;;;;;1.50;0.80;;;;;;;21.41;16.80;101406.87;5546461;26;35203;-88
2022/05/18 12:50:41;;;;;;;1.70;0.80;;;;;;;21.27;16.78;101405.31;5510625;32;33383;-87
2022/05/18 12:53:52;;;;;;;1.52;0.70;;;;;;;20.89;18.07;101406.44;5519625;32;33526;-87
2022/05/18 12:57:36;;;;;;;1.27;0.77;;;;;;;21.26;16.78;101412.53;5498638;32;34270;-92
2022/05/18 13:01:00;;;;;;;1.70;0.60;;;;;;;21.46;18.73;101404.69;5501972;32;34188;-87
2022/05/18 13:04:26;;;;;;;4.03;0.80;;;;;;;21.58;17.88;101405.56;5501848;32;34229;-87
2022/05/18 13:07:31;;;;;;;1.73;0.52;;;;;;;21.06;17.08;101408.69;5510436;32;32920;-87
2022/05/18 13:10:37;;;;;;;3.37;0.62;;;;;;;20.87;15.68;101401.19;5504691;32;32972;-91
2022/05/18 13:54:25;;;;;;;0.70;0.70;;;;;;;21.36;17.57;101385.66;4122705;26;20123;-87
2022/05/18 13:57:38;;;;;;;1.83;1.00;;;;;;;21.41;18.51;101390.69;5533020;32;32782;-88
2022/05/18 14:00:59;;;;;;;0.68;0.60;;;;;;;21.31;17.88;101395.12;5552970;32;33901;-87
2022/05/18 14:04:04;;;;;;;3.20;0.90;;;;;;;21.20;16.70;101385.16;5544430;26;33025;-89
2022/05/18 14:45:45;;;;;;;2.25;1.00;;;;;;;21.16;19.02;101391.78;5360530;29;20124;-88
2022/05/18 14:48:59;;;;;;;1.90;0.80;;;;;;;21.23;16.79;101384.94;5519556;32;32407;-87
2022/05/18 14:52:13;;;;;;;0.98;0.80;;;;;;;21.17;17.27;101388.12;5531020;32;33666;-87
2022/05/18 14:55:25;;;;;;;1.15;0.85;;;;;;;21.39;17.75;101388.12;5530626;32;33986;-86
2022/05/18 14:58:32;;;;;;;3.08;0.80;;;;;;;21.08;17.89;101387.00;5515740;32;33321;-87
2022/05/18 15:01:41;;;;;;;9.52;0.98;;;;;;;20.65;17.53;101394.72;5514318;32;33094;-87
2022/05/18 15:04:56;;;;;;;1.67;0.80;;;;;;;20.65;18.22;101396.53;5511288;32;34006;-86
2022/05/18 15:08:00;;;;;;;3.10;1.10;;;;;;;20.89;19.82;101390.25;5514714;32;33375;-86
2022/05/18 15:11:15;;;;;;;3.62;0.93;;;;;;;20.60;17.65;101389.69;5528472;32;34356;-87
2022/05/18 15:14:40;;;;;;;2.45;1.10;;;;;;;20.53;18.35;101395.66;5528624;32;34385;-86
2022/05/18 15:17:52;;;;;;;2.95;0.80;;;;;;;20.43;19.03;101385.56;5529948;32;34151;-87
2022/05/18 15:21:02;;;;;;;0.98;0.98;;;;;;;20.88;17.95;101370.53;5529538;32;34391;-87
2022/05/18 15:24:24;;;;;;;8.15;1.25;;;;;;;20.64;19.98;101381.34;5515739;32;32381;-87
2022/05/18 15:27:31;;;;;;;1.20;0.82;;;;;;;20.67;18.95;101387.34;5533543;32;34467;-87
2022/05/18 15:30:40;;;;;;;2.40;1.00;;;;;;;20.59;17.74;101387.09;5515854;32;32532;-87
2022/05/18 15:33:47;;;;;;;5.32;1.08;;;;;;;20.20;18.26;101390.00;5532107;32;33536;-86
2022/05/18 15:36:50;;;;;;;2.00;0.65;;;;;;;20.28;18.60;101384.03;5516285;32;34597;-87
2022/05/18 15:39:53;;;;;;;1.30;0.82;;;;;;;20.29;18.15;101385.75;5527972;32;33708;-87
2022/05/18 15:42:56;;;;;;;2.72;0.70;;;;;;;20.38;17.52;101381.50;5515827;32;34079;-86
